• Join FlightAware (Why Join?)
  • Login
  • US Flag 
09:36PM EDT


 

Airport Tracker/Info


-or-


 

Live Flight TrackerFlight Track Log ✈ CPT8773 ✈ 03-Dec-2013 ✈ KCPR - KCOD

Flight Track Log - Related Links

Times and Time Zones

All times are in EST time to prevent confusion due to time zone crossing. See the CPT8773 flight status page for this flight to view local times or setup timezone preferences in your user account.

Time Position Orientation Groundspeed Altitude Reporting Facility
EST Latitude Longitude Course Direction KTS MPH feet Rate Location/Type
10:17AM 42.9750 -106.4778 351° North 105 121 8,100  Level Denver Center
10:18AM 43.0006 -106.4856 347° North 101 116 8,800 720 Climbing Denver Center
10:19AM 43.0303 -106.4950 347° North 105 121 9,600 780 Climbing Denver Center
10:20AM 43.0681 -106.5025 352° North 113 130 10,400 600 Climbing Denver Center
10:21AM 43.0629 -106.7006 307° West  Level Estimated
10:21AM 43.1017 -106.5106 350° North 120 138 10,900  Level Denver Center
10:22AM 43.1010 -106.7094 351° North  Level FlightAware Approximate
10:22AM 43.1406 -106.5164 354° North 123 142 11,800  Level Denver Center
10:23AM 43.1728 -106.5203 355° North 123 142 12,000 60 Climbing Denver Center
10:24AM 43.2194 -106.5289 352° North 147 169 12,000  Level Denver Center
10:25AM 43.2478 -106.5703 313° West 154 177 12,000  Level Denver Center
10:26AM 43.2703 -106.6186 303° West 156 180 12,000  Level Denver Center
10:27AM 43.2986 -106.6733 305° West 158 182 12,000  Level Denver Center
10:28AM 43.3219 -106.7206 304° West 156 180 12,100  Climbing Salt Lake Center
10:29AM 43.3461 -106.7678 305° West 157 181 12,000 -60 Descending Salt Lake Center
10:30AM 43.3706 -106.8092 309° West 150 173 12,000  Level Salt Lake Center
10:31AM 43.3947 -106.8594 303° West 143 165 12,100  Climbing Salt Lake Center
10:32AM 43.4164 -106.9025 305° West 143 165 12,000  Descending Salt Lake Center
10:33AM 43.4403 -106.9489 305° West 137 158 12,100  Climbing Salt Lake Center
10:34AM 43.4625 -106.9908 306° West 136 157 12,100  Level Salt Lake Center
10:35AM 43.4847 -107.0331 306° West 137 158 12,100  Level Salt Lake Center
10:36AM 43.5069 -107.0761 305° West 138 159 12,100 -60 Level Salt Lake Center
10:37AM 43.5294 -107.1167 307° West 134 154 12,000 -60 Descending Salt Lake Center
10:38AM 43.5511 -107.1592 305° West 135 155 12,000  Level Salt Lake Center
10:39AM 43.5725 -107.1994 306° West 133 153 12,000  Level Salt Lake Center
10:40AM 43.5936 -107.2419 304° West 133 153 12,000  Level Salt Lake Center
10:41AM 43.6194 -107.2914 306° West 133 153 12,000  Level Salt Lake Center
10:42AM 43.6403 -107.3328 305° West 132 152 12,000  Level Salt Lake Center
10:43AM 43.6636 -107.3736 308° West 133 153 12,000  Level Salt Lake Center
10:44AM 43.6858 -107.4161 306° West 135 155 12,000  Level Salt Lake Center
10:45AM 43.7078 -107.4583 306° West 135 155 12,000  Level Salt Lake Center
10:46AM 43.7311 -107.5042 305° West 139 160 12,100  Climbing Salt Lake Center
10:47AM 43.7550 -107.5517 305° West 144 166 12,100  Level Salt Lake Center
10:48AM 43.7775 -107.5975 304° West 145 167 12,100  Level Salt Lake Center
10:50AM 43.8058 -107.6519 306° West 146 168 12,100  Level Salt Lake Center
10:51AM 43.8297 -107.6989 305° West 147 169 12,100  Level Salt Lake Center
10:52AM 43.8536 -107.7442 306° West 147 169 12,100  Level Salt Lake Center
10:53AM 43.8778 -107.7883 307° West 146 168 12,100  Level Salt Lake Center
10:54AM 43.9006 -107.8350 304° West 146 168 12,100  Level Salt Lake Center
10:55AM 43.9247 -107.8811 306° West 147 169 12,100  Level Salt Lake Center
10:56AM 43.9589 -107.9181 322° Northwest 152 175 12,100  Level Salt Lake Center
10:57AM 43.9953 -107.9644 317° Northwest 151 174 12,100  Level Salt Lake Center
10:58AM 44.0275 -108.0025 320° Northwest 151 174 12,100  Level Salt Lake Center
10:59AM 44.0592 -108.0417 318° Northwest 152 175 12,100  Level Salt Lake Center
11:00AM 44.0911 -108.0797 319° Northwest 152 175 12,100  Level Salt Lake Center
11:01AM 44.1222 -108.1175 319° Northwest 151 174 12,100  Level Salt Lake Center
11:02AM 44.1539 -108.1558 319° Northwest 150 173 12,100  Level Salt Lake Center
11:03AM 44.1864 -108.1939 320° Northwest 151 174 12,100  Level Salt Lake Center
11:04AM 44.2167 -108.2322 318° Northwest 150 173 12,100  Level Salt Lake Center
11:05AM 44.2544 -108.2778 319° Northwest 149 171 12,100  Level Salt Lake Center
11:06AM 44.2861 -108.3167 319° Northwest 150 173 12,100  Level Salt Lake Center
11:07AM 44.3178 -108.3561 318° Northwest 151 174 12,100  Level Salt Lake Center
11:08AM 44.3514 -108.3958 320° Northwest 154 177 12,100  Level Salt Lake Center
11:09AM 44.3842 -108.4347 320° Northwest 155 178 12,100  Level Salt Lake Center
11:10AM 44.4164 -108.4767 317° Northwest 156 180 12,100 -240 Level Salt Lake Center
11:11AM 44.4489 -108.5169 319° Northwest 156 180 11,700 -540 Descending Salt Lake Center
11:12AM 44.4831 -108.5578 320° Northwest 158 182 11,000 -840 Descending Salt Lake Center
11:13AM 44.5253 -108.6089 319° Northwest 162 186 10,100 -840 Descending Salt Lake Center
11:14AM 44.5578 -108.6514 317° Northwest 163 188 9,300 -720 Descending Salt Lake Center
11:15AM 44.5906 -108.6886 321° Northwest 158 182 8,700 -540 Descending Salt Lake Center
11:16AM 44.6244 -108.7225 325° Northwest 154 177 8,200 -300 Descending Salt Lake Center
11:17AM 44.6547 -108.7558 322° Northwest 148 170 8,100 -300 Descending Salt Lake Center
11:18AM 44.6389 -108.8119 248° West 170 196 7,700 -300 Descending Salt Lake Center
11:19AM 44.6089 -108.8642 231° Southwest 174 200 7,600 -420 Descending Salt Lake Center
11:20AM 44.5747 -108.9278 233° Southwest 172 198 6,900 -720 Descending Salt Lake Center